Terminal Aerodrome Forecast
Issued by NWS

Home | Current Version | Previous Version | Text Only | Print | Product List | Glossary On
Versions: 1 2 3 4 5 6 7 8 9 10 11 12 13 14 15 16 17 18 19 20
000
FTUS46 KMFR 291620 AAA
TAFLMT
TAF AMD
KLMT 291620Z 2916/3012 28008KT 6SM -SHSN BR SCT030 OVC060
     FM292100 34011KT 3SM -SHSN BKN015 BKN030 BKN040
     FM300000 36015G22KT P6SM SCT030 SCT050
     FM300600 03012KT P6SM SCT025=

USA.gov is the U.S. government's official web portal to all federal, state and local government web resources and services.